Observation data for Plainview on 03/10/2018      Previous  Date  Next       Current Mesonet Observations  Soil Data  Daily Summary Page  Observations in Plain Language
KPVS 100600Z 09003KT 09/M08 A2984 RMK A01 T00891081  RH  029%=      5-min Rain = 0
KPVS 100605Z 09004KT 09/M08 A2984 RMK A01 T00881082  RH  030%=      5-min Rain = 0
KPVS 100610Z 10004KT 09/M08 A2983 RMK A01 T00861081  RH  030%=      5-min Rain = 0
KPVS 100615Z 10003KT 09/M08 A2983 RMK A01 T00871079  RH  030%=      5-min Rain = 0
KPVS 100620Z 09004KT 09/M08 A2983 RMK A01 T00891078  RH  030%=      5-min Rain = 0
KPVS 100625Z 09004KT 09/M08 A2983 RMK A01 T00881080  RH  030%=      5-min Rain = 0
KPVS 100630Z 08004KT 09/M08 A2982 RMK A01 T00851080  RH  031%=      5-min Rain = 0
KPVS 100635Z 09004KT 09/M08 A2982 RMK A01 T00861078  RH  031%=      5-min Rain = 0
KPVS 100640Z 09004KT 09/M08 A2982 RMK A01 T00881075  RH  031%=      5-min Rain = 0
KPVS 100645Z 10004KT 09/M07 A2982 RMK A01 T00901074  RH  031%=      5-min Rain = 0
KPVS 100650Z 10003KT 09/M07 A2982 RMK A01 T00901074  RH  031%=      5-min Rain = 0
KPVS 100655Z 10004KT 09/M07 A2982 RMK A01 T00901073  RH  031%=      5-min Rain = 0
KPVS 100700Z 10004KT 09/M07 A2983 RMK A01 T00891071  RH  032%=      5-min Rain = 0
KPVS 100705Z 09003KT 09/M07 A2983 RMK A01 T00891070  RH  032%=      5-min Rain = 0
KPVS 100710Z 09004KT 09/M07 A2982 RMK A01 T00881071  RH  032%=      5-min Rain = 0
KPVS 100715Z 10004KT 09/M07 A2982 RMK A01 T00871068  RH  033%=      5-min Rain = 0
KPVS 100720Z 10004KT 09/M07 A2982 RMK A01 T00871066  RH  033%=      5-min Rain = 0
KPVS 100725Z 11003KT 09/M07 A2982 RMK A01 T00861067  RH  033%=      5-min Rain = 0
KPVS 100730Z 11003KT 09/M07 A2982 RMK A01 T00861066  RH  034%=      5-min Rain = 0
KPVS 100735Z 11003KT 09/M07 A2982 RMK A01 T00851066  RH  034%=      5-min Rain = 0
KPVS 100740Z 11003KT 08/M06 A2982 RMK A01 T00841064  RH  035%=      5-min Rain = 0
KPVS 100745Z 12004KT 08/M07 A2981 RMK A01 T00821065  RH  035%=      5-min Rain = 0
KPVS 100750Z 12004KT 08/M06 A2981 RMK A01 T00801063  RH  036%=      5-min Rain = 0
KPVS 100755Z 12003KT 08/M06 A2981 RMK A01 T00791062  RH  037%=      5-min Rain = 0
KPVS 100800Z 12003KT 08/M06 A2981 RMK A01 T00811062  RH  036%=      5-min Rain = 0
KPVS 100805Z 12002KT 08/M06 A2981 RMK A01 T00791064  RH  036%=      5-min Rain = 0
KPVS 100810Z 12002KT 08/M06 A298 RMK A01 T00761064  RH  037%=      5-min Rain = 0
KPVS 100815Z 12003KT 08/M06 A298 RMK A01 T00751062  RH  038%=      5-min Rain = 0
KPVS 100820Z 13003KT 08/M06 A298 RMK A01 T00771064  RH  036%=      5-min Rain = 0
KPVS 100825Z 15002KT 07/M06 A298 RMK A01 T00731064  RH  037%=      5-min Rain = 0
KPVS 100830Z 17002KT 07/M06 A298 RMK A01 T00731062  RH  038%=      5-min Rain = 0
KPVS 100835Z 15002KT 07/M06 A298 RMK A01 T00721064  RH  038%=      5-min Rain = 0
KPVS 100840Z 15002KT 07/M06 A298 RMK A01 T00701063  RH  039%=      5-min Rain = 0
KPVS 100845Z 15001KT 07/M06 A2979 RMK A01 T00681063  RH  039%=      5-min Rain = 0
KPVS 100850Z 17002KT 07/M06 A2979 RMK A01 T00651064  RH  040%=      5-min Rain = 0
KPVS 100855Z 20001KT 06/M06 A2979 RMK A01 T00601063  RH  041%=      5-min Rain = 0
KPVS 100900Z 18002KT 06/M06 A2979 RMK A01 T00631063  RH  040%=      5-min Rain = 0
KPVS 100905Z 17003KT 07/M06 A2979 RMK A01 T00651063  RH  040%=      5-min Rain = 0
KPVS 100910Z 22003KT 06/M07 A2979 RMK A01 T00601066  RH  040%=      5-min Rain = 0
KPVS 100915Z 29004KT 04/M06 A2979 RMK A01 T00371064  RH  048%=      5-min Rain = 0
KPVS 100920Z 24003KT 04/M06 A2978 RMK A01 T00371062  RH  049%=      5-min Rain = 0
KPVS 100925Z 20003KT 04/M06 A2978 RMK A01 T00441063  RH  046%=      5-min Rain = 0
KPVS 100930Z 19003KT 05/M06 A2978 RMK A01 T00471064  RH  045%=      5-min Rain = 0
KPVS 100935Z 22003KT 05/M06 A2978 RMK A01 T00481064  RH  045%=      5-min Rain = 0
KPVS 100940Z 20002KT 05/M07 A2978 RMK A01 T00521065  RH  043%=      5-min Rain = 0
KPVS 100945Z 26003KT 05/M07 A2978 RMK A01 T00471065  RH  045%=      5-min Rain = 0
KPVS 100950Z 25004KT 04/M06 A2978 RMK A01 T00381063  RH  048%=      5-min Rain = 0
KPVS 100955Z 24003KT 05/M06 A2978 RMK A01 T00481063  RH  045%=      5-min Rain = 0
KPVS 101000Z 25004KT 05/M06 A2979 RMK A01 T00501064  RH  044%=      5-min Rain = 0
KPVS 101005Z 24004KT 05/M06 A2979 RMK A01 T00501064  RH  044%=      5-min Rain = 0
KPVS 101010Z 25004KT 06/M07 A2979 RMK A01 T00551065  RH  042%=      5-min Rain = 0
KPVS 101015Z 24004KT 06/M07 A298 RMK A01 T00561066  RH  041%=      5-min Rain = 0
KPVS 101020Z 25006KT 06/M07 A298 RMK A01 T00571067  RH  041%=      5-min Rain = 0
KPVS 101025Z 25007KT 06/M07 A298 RMK A01 T00561067  RH  041%=      5-min Rain = 0
KPVS 101030Z 25006KT 06/M07 A298 RMK A01 T00581069  RH  040%=      5-min Rain = 0
KPVS 101035Z 25006KT 06/M07 A298 RMK A01 T00571067  RH  041%=      5-min Rain = 0
KPVS 101040Z 25006KT 06/M07 A2981 RMK A01 T00561067  RH  041%=      5-min Rain = 0
KPVS 101045Z 26006KT 06/M07 A2981 RMK A01 T00571067  RH  041%=      5-min Rain = 0
KPVS 101050Z 26006KT 06/M07 A298 RMK A01 T00581068  RH  040%=      5-min Rain = 0
KPVS 101055Z 26006KT 06/M07 A2981 RMK A01 T00601068  RH  040%=      5-min Rain = 0
KPVS 101100Z 27006KT 06/M07 A2981 RMK A01 T00571069  RH  040%=      5-min Rain = 0
KPVS 101105Z 27006KT 05/M07 A2981 RMK A01 T00541070  RH  041%=      5-min Rain = 0
KPVS 101110Z 27007KT 05/M07 A2981 RMK A01 T00531067  RH  042%=      5-min Rain = 0
KPVS 101115Z 27007KT 06/M07 A2981 RMK A01 T00551067  RH  042%=      5-min Rain = 0
KPVS 101120Z 28006KT 06/M07 A298 RMK A01 T00561066  RH  041%=      5-min Rain = 0
KPVS 101125Z 28006KT 05/M07 A298 RMK A01 T00541065  RH  042%=      5-min Rain = 0
KPVS 101130Z 28006KT 06/M07 A298 RMK A01 T00561065  RH  042%=      5-min Rain = 0
KPVS 101135Z 28006KT 06/M07 A298 RMK A01 T00551065  RH  042%=      5-min Rain = 0
KPVS 101140Z 27005KT 06/M07 A2981 RMK A01 T00561065  RH  042%=      5-min Rain = 0
KPVS 101145Z 27006KT 06/M07 A298 RMK A01 T00581066  RH  041%=      5-min Rain = 0
KPVS 101150Z 27006KT 06/M07 A298 RMK A01 T00591066  RH  041%=      5-min Rain = 0
KPVS 101155Z 27006KT 06/M07 A298 RMK A01 T00581067  RH  041%=      5-min Rain = 0
KPVS 101200Z 26005KT 06/M07 A298 RMK A01 T00591068  RH  040%=      5-min Rain = 0
KPVS 101205Z 26006KT 06/M07 A298 RMK A01 T00581068  RH  040%=      5-min Rain = 0
KPVS 101210Z 25006KT 06/M07 A298 RMK A01 T00601066  RH  040%=      5-min Rain = 0
KPVS 101215Z 29007KT 06/M07 A2981 RMK A01 T00591066  RH  041%=      5-min Rain = 0
KPVS 101220Z 29007KT 06/M07 A2981 RMK A01 T00571066  RH  041%=      5-min Rain = 0
KPVS 101225Z 28007KT 06/M07 A2981 RMK A01 T00631066  RH  039%=      5-min Rain = 0
KPVS 101230Z 30007KT 06/M07 A2981 RMK A01 T00631066  RH  040%=      5-min Rain = 0
KPVS 101235Z 29006KT 06/M07 A2982 RMK A01 T00561067  RH  041%=      5-min Rain = 0
KPVS 101240Z 29006KT 05/M07 A2982 RMK A01 T00491066  RH  043%=      5-min Rain = 0
KPVS 101245Z 30006KT 04/M07 A2982 RMK A01 T00441066  RH  045%=      5-min Rain = 0
KPVS 101250Z 29006KT 04/M07 A2982 RMK A01 T00441066  RH  045%=      5-min Rain = 0
KPVS 101255Z 29007KT 04/M07 A2982 RMK A01 T00441066  RH  045%=      5-min Rain = 0
KPVS 101300Z 28006KT 05/M07 A2982 RMK A01 T00451066  RH  045%=      5-min Rain = 0
KPVS 101305Z 28007KT 05/M07 A2982 RMK A01 T00471066  RH  044%=      5-min Rain = 0
KPVS 101310Z 28008KT 05/M07 A2982 RMK A01 T00451065  RH  045%=      5-min Rain = 0
KPVS 101315Z 27007KT 04/M07 A2981 RMK A01 T00431065  RH  046%=      5-min Rain = 0
KPVS 101320Z 27007KT 05/M07 A2982 RMK A01 T00461065  RH  045%=      5-min Rain = 0
KPVS 101325Z 27007KT 05/M06 A2982 RMK A01 T00451064  RH  045%=      5-min Rain = 0
KPVS 101330Z 27007KT 05/M07 A2982 RMK A01 T00461065  RH  045%=      5-min Rain = 0
KPVS 101335Z 27008KT 05/M06 A2982 RMK A01 T00471064  RH  045%=      5-min Rain = 0
KPVS 101340Z 27008KT 05/M06 A2982 RMK A01 T00481064  RH  045%=      5-min Rain = 0
KPVS 101345Z 27007KT 05/M06 A2982 RMK A01 T00511063  RH  044%=      5-min Rain = 0
KPVS 101350Z 28008KT 06/M06 A2982 RMK A01 T00561063  RH  043%=      5-min Rain = 0
KPVS 101355Z 27007KT 06/M06 A2982 RMK A01 T00601062  RH  041%=      5-min Rain = 0
KPVS 101400Z 27007KT 06/M06 A2982 RMK A01 T00631062  RH  041%=      5-min Rain = 0
KPVS 101405Z 27007KT 07/M06 A2982 RMK A01 T00691062  RH  039%=      5-min Rain = 0
KPVS 101410Z 27007KT 08/M06 A2982 RMK A01 T00761060  RH  038%=      5-min Rain = 0
KPVS 101415Z 27006KT 08/M06 A2982 RMK A01 T00811058  RH  037%=      5-min Rain = 0
KPVS 101420Z 26007KT 09/M06 A2982 RMK A01 T00871057  RH  036%=      5-min Rain = 0
KPVS 101425Z 27006KT 09/M06 A2982 RMK A01 T00911057  RH  035%=      5-min Rain = 0
KPVS 101430Z 26005KT 10/M06 A2982 RMK A01 T00951055  RH  035%=      5-min Rain = 0
KPVS 101435Z 26006KT 10/M05 A2982 RMK A01 T01001053  RH  034%=      5-min Rain = 0
KPVS 101440Z 26006KT 11/M05 A2982 RMK A01 T01081052  RH  032%=      5-min Rain = 0
KPVS 101445Z 27007KT 12/M05 A2982 RMK A01 T01171051  RH  031%=      5-min Rain = 0
KPVS 101450Z 27008KT 13/M05 A2982 RMK A01 T01251050  RH  029%=      5-min Rain = 0
KPVS 101455Z 27009G14KT 13/M05 A2982 RMK A01 T01311053  RH  028%=      5-min Rain = 0
KPVS 101500Z 27010KT 13/M05 A2982 RMK A01 T01341054  RH  027%=      5-min Rain = 0
KPVS 101505Z 28010KT 14/M05 A2982 RMK A01 T01391052  RH  026%=      5-min Rain = 0
KPVS 101510Z 28009KT 14/M05 A2982 RMK A01 T01431051  RH  026%=      5-min Rain = 0
KPVS 101515Z 28010KT 15/M05 A2982 RMK A01 T01471054  RH  025%=      5-min Rain = 0
KPVS 101520Z 28012KT 15/M06 A2982 RMK A01 T01501061  RH  023%=      5-min Rain = 0
KPVS 101525Z 28012KT 15/M06 A2982 RMK A01 T01521063  RH  022%=      5-min Rain = 0
KPVS 101530Z 28011KT 16/M06 A2982 RMK A01 T01571062  RH  022%=      5-min Rain = 0
KPVS 101535Z 28012KT 16/M07 A2982 RMK A01 T01621069  RH  020%=      5-min Rain = 0
KPVS 101540Z 28011KT 17/M07 A2982 RMK A01 T01651069  RH  020%=      5-min Rain = 0
KPVS 101545Z 28010KT 17/M07 A2983 RMK A01 T01691067  RH  019%=      5-min Rain = 0
KPVS 101550Z 28011KT 17/M07 A2983 RMK A01 T01721071  RH  018%=      5-min Rain = 0
KPVS 101555Z 28012KT 17/M07 A2983 RMK A01 T01741073  RH  018%=      5-min Rain = 0
KPVS 101600Z 28010KT 18/M07 A2982 RMK A01 T01771072  RH  018%=      5-min Rain = 0
KPVS 101605Z 28011KT 18/M07 A2982 RMK A01 T01801069  RH  018%=      5-min Rain = 0
KPVS 101610Z 29011KT 18/M07 A2982 RMK A01 T01821072  RH  017%=      5-min Rain = 0
KPVS 101615Z 29011G16KT 19/M07 A2982 RMK A01 T01871073  RH  017%=      5-min Rain = 0
KPVS 101620Z 29011KT 19/M08 A2982 RMK A01 T01891078  RH  016%=      5-min Rain = 0
KPVS 101625Z 28010KT 19/M08 A2982 RMK A01 T01921077  RH  016%=      5-min Rain = 0
KPVS 101630Z 28010G15KT 20/M08 A2982 RMK A01 T01981081  RH  015%=      5-min Rain = 0
KPVS 101635Z 28012KT 20/M09 A2982 RMK A01 T02011085  RH  014%=      5-min Rain = 0
KPVS 101640Z 28011KT 20/M08 A2982 RMK A01 T02031082  RH  014%=      5-min Rain = 0
KPVS 101645Z 28012KT 21/M09 A2982 RMK A01 T02061087  RH  013%=      5-min Rain = 0
KPVS 101650Z 28012KT 21/M09 A2982 RMK A01 T02091091  RH  013%=      5-min Rain = 0
KPVS 101655Z 29009G14KT 21/M08 A2982 RMK A01 T02131083  RH  013%=      5-min Rain = 0
KPVS 101700Z 29010KT 22/M09 A2982 RMK A01 T02201087  RH  012%=      5-min Rain = 0
KPVS 101705Z 28009G14KT 23/M09 A2982 RMK A01 T02261089  RH  012%=      5-min Rain = 0
KPVS 101710Z 28011KT 23/M11 A2981 RMK A01 T02321105  RH  010%=      5-min Rain = 0
KPVS 101715Z 29013KT 24/M11 A2981 RMK A01 T02361110  RH  009%=      5-min Rain = 0
KPVS 101720Z 31014G22KT 24/M11 A2981 RMK A01 T02381112  RH  009%=      5-min Rain = 0
KPVS 101725Z 30017G24KT 24/M12 A2981 RMK A01 T02411118  RH  008%=      5-min Rain = 0
KPVS 101730Z 30015G21KT 24/M12 A2981 RMK A01 T02421120  RH  008%=      5-min Rain = 0
KPVS 101735Z 31017G23KT 24/M13 A2981 RMK A01 T02441126  RH  008%=      5-min Rain = 0
KPVS 101740Z 30014KT 24/M13 A2981 RMK A01 T02441127  RH  008%=      5-min Rain = 0
KPVS 101745Z 32015G21KT 25/M13 A2981 RMK A01 T02461130  RH  007%=      5-min Rain = 0
KPVS 101750Z 33014G20KT 25/M13 A2981 RMK A01 T02451132  RH  007%=      5-min Rain = 0
KPVS 101755Z 31015G23KT 25/M12 A2981 RMK A01 T02451124  RH  008%=      5-min Rain = 0
KPVS 101800Z 31014G20KT 25/M12 A2981 RMK A01 T02461124  RH  008%=      5-min Rain = 0
KPVS 101805Z 29015G22KT 25/M12 A2981 RMK A01 T02491123  RH  008%=      5-min Rain = 0
KPVS 101810Z 31013G22KT 25/M13 A2981 RMK A01 T02501128  RH  007%=      5-min Rain = 0
KPVS 101815Z 30011G17KT 25/M13 A2981 RMK A01 T02521125  RH  007%=      5-min Rain = 0
KPVS 101820Z 32012G18KT 25/M13 A2981 RMK A01 T02511126  RH  007%=      5-min Rain = 0
KPVS 101825Z 30013G19KT 25/M13 A2981 RMK A01 T02511128  RH  007%=      5-min Rain = 0
KPVS 101830Z 30014G21KT 25/M13 A2981 RMK A01 T02491131  RH  007%=      5-min Rain = 0
KPVS 101835Z 30013G19KT 25/M14 A2981 RMK A01 T02491136  RH  007%=      5-min Rain = 0
KPVS 101840Z 32011G18KT 25/M13 A298 RMK A01 T02511131  RH  007%=      5-min Rain = 0
KPVS 101845Z 30014G21KT 26/M13 A298 RMK A01 T02551133  RH  007%=      5-min Rain = 0
KPVS 101850Z 31013G19KT 25/M14 A298 RMK A01 T02541135  RH  007%=      5-min Rain = 0
KPVS 101855Z 32011G18KT 25/M14 A298 RMK A01 T02521139  RH  007%=      5-min Rain = 0
KPVS 101900Z 30014G22KT 25/M14 A2979 RMK A01 T02511135  RH  007%=      5-min Rain = 0
KPVS 101905Z 31014G20KT 25/M14 A2979 RMK A01 T02531136  RH  007%=      5-min Rain = 0
KPVS 101910Z 28011G19KT 25/M14 A2979 RMK A01 T02541136  RH  007%=      5-min Rain = 0
KPVS 101915Z 30009G16KT 25/M14 A2979 RMK A01 T02521135  RH  007%=      5-min Rain = 0
KPVS 101920Z 30010KT 25/M14 A2979 RMK A01 T02531135  RH  007%=      5-min Rain = 0
KPVS 101925Z 32012G17KT 25/M13 A2978 RMK A01 T02541134  RH  007%=      5-min Rain = 0
KPVS 101930Z 32013G21KT 25/M13 A2978 RMK A01 T02541134  RH  007%=      5-min Rain = 0
KPVS 101935Z 32012KT 26/M14 A2978 RMK A01 T02551135  RH  007%=      5-min Rain = 0
KPVS 101940Z 29011G16KT 26/M13 A2977 RMK A01 T02591129  RH  007%=      5-min Rain = 0
KPVS 101945Z 30015KT 26/M13 A2977 RMK A01 T02621134  RH  007%=      5-min Rain = 0
KPVS 101950Z 29012G19KT 26/M13 A2977 RMK A01 T02591132  RH  007%=      5-min Rain = 0
KPVS 101955Z 28009KT 26/M13 A2976 RMK A01 T02581131  RH  007%=      5-min Rain = 0
KPVS 102000Z 30011G17KT 26/M13 A2976 RMK A01 T02581134  RH  007%=      5-min Rain = 0
KPVS 102005Z 29011G18KT 26/M14 A2976 RMK A01 T02551136  RH  007%=      5-min Rain = 0
KPVS 102010Z 30008G17KT 25/M14 A2976 RMK A01 T02541136  RH  007%=      5-min Rain = 0
KPVS 102015Z 30011G18KT 26/M13 A2976 RMK A01 T02571134  RH  007%=      5-min Rain = 0
KPVS 102020Z 30015G21KT 26/M14 A2976 RMK A01 T02571135  RH  007%=      5-min Rain = 0
KPVS 102025Z 28013G18KT 25/M13 A2975 RMK A01 T02541132  RH  007%=      5-min Rain = 0
KPVS 102030Z 27011G17KT 25/M13 A2975 RMK A01 T02521132  RH  007%=      5-min Rain = 0
KPVS 102035Z 28012G17KT 25/M13 A2975 RMK A01 T02521132  RH  007%=      5-min Rain = 0
KPVS 102040Z 27009G14KT 25/M13 A2975 RMK A01 T02531130  RH  007%=      5-min Rain = 0
KPVS 102045Z 29009G14KT 25/M13 A2975 RMK A01 T02541130  RH  007%=      5-min Rain = 0
KPVS 102050Z 31010G15KT 26/M13 A2975 RMK A01 T02591128  RH  007%=      5-min Rain = 0
KPVS 102055Z 31011G16KT 26/M13 A2975 RMK A01 T02611129  RH  007%=      5-min Rain = 0
KPVS 102100Z 29006G11KT 26/M13 A2975 RMK A01 T02571129  RH  007%=      5-min Rain = 0
KPVS 102105Z 28007G12KT 26/M13 A2975 RMK A01 T02571126  RH  007%=      5-min Rain = 0
KPVS 102110Z 29010G17KT 26/M13 A2975 RMK A01 T02601127  RH  007%=      5-min Rain = 0
KPVS 102115Z 29009G15KT 26/M13 A2975 RMK A01 T02581126  RH  007%=      5-min Rain = 0
KPVS 102120Z 28008G16KT 26/M13 A2975 RMK A01 T02601125  RH  007%=      5-min Rain = 0
KPVS 102125Z 32007KT 26/M13 A2975 RMK A01 T02601127  RH  007%=      5-min Rain = 0
KPVS 102130Z 31006G13KT 26/M13 A2975 RMK A01 T02611125  RH  007%=      5-min Rain = 0
KPVS 102135Z 33008G13KT 26/M13 A2975 RMK A01 T02631125  RH  007%=      5-min Rain = 0
KPVS 102140Z 26008G15KT 26/M12 A2975 RMK A01 T02611122  RH  007%=      5-min Rain = 0
KPVS 102145Z 27007KT 26/M13 A2975 RMK A01 T02581125  RH  007%=      5-min Rain = 0
KPVS 102150Z 29008G14KT 26/M12 A2974 RMK A01 T02571124  RH  007%=      5-min Rain = 0
KPVS 102155Z 31008KT 26/M13 A2974 RMK A01 T02591126  RH  007%=      5-min Rain = 0
KPVS 102200Z 30007G14KT 26/M12 A2974 RMK A01 T02601124  RH  007%=      5-min Rain = 0
KPVS 102205Z 29010KT 26/M12 A2974 RMK A01 T02611124  RH  007%=      5-min Rain = 0
KPVS 102210Z 31013G18KT 26/M13 A2974 RMK A01 T02581125  RH  007%=      5-min Rain = 0
KPVS 102215Z 30008G14KT 26/M13 A2974 RMK A01 T02561125  RH  007%=      5-min Rain = 0
KPVS 102220Z 30006KT 26/M13 A2974 RMK A01 T02561125  RH  007%=      5-min Rain = 0
KPVS 102225Z 27005KT 26/M12 A2974 RMK A01 T02571123  RH  007%=      5-min Rain = 0
KPVS 102230Z 28008G19KT 26/M12 A2974 RMK A01 T02571122  RH  007%=      5-min Rain = 0
KPVS 102235Z 28010G15KT 26/M12 A2975 RMK A01 T02561124  RH  007%=      5-min Rain = 0
KPVS 102240Z 28008KT 26/M12 A2975 RMK A01 T02551124  RH  007%=      5-min Rain = 0
KPVS 102245Z 27006KT 25/M12 A2975 RMK A01 T02541123  RH  007%=      5-min Rain = 0
KPVS 102250Z 26005KT 25/M12 A2975 RMK A01 T02541123  RH  007%=      5-min Rain = 0
KPVS 102255Z 27006KT 25/M12 A2975 RMK A01 T02531124  RH  007%=      5-min Rain = 0
KPVS 102300Z 27006KT 25/M12 A2975 RMK A01 T02521124  RH  007%=      5-min Rain = 0
KPVS 102305Z 29009KT 25/M12 A2975 RMK A01 T02521122  RH  008%=      5-min Rain = 0
KPVS 102310Z 29010G15KT 25/M13 A2975 RMK A01 T02511125  RH  007%=      5-min Rain = 0
KPVS 102315Z 28007KT 25/M12 A2975 RMK A01 T02491124  RH  008%=      5-min Rain = 0
KPVS 102320Z 29006G11KT 25/M12 A2976 RMK A01 T02471121  RH  008%=      5-min Rain = 0
KPVS 102325Z 29007KT 25/M12 A2976 RMK A01 T02471123  RH  008%=      5-min Rain = 0
KPVS 102330Z 29006KT 25/M12 A2976 RMK A01 T02451122  RH  008%=      5-min Rain = 0
KPVS 102335Z 32006KT 25/M12 A2976 RMK A01 T02451123  RH  008%=      5-min Rain = 0
KPVS 102340Z 33005KT 25/M13 A2976 RMK A01 T02451125  RH  008%=      5-min Rain = 0
KPVS 102345Z 33004KT 24/M13 A2976 RMK A01 T02441125  RH  008%=      5-min Rain = 0
KPVS 102350Z 33004KT 24/M12 A2976 RMK A01 T02431124  RH  008%=      5-min Rain = 0
KPVS 102355Z 33003KT 24/M13 A2977 RMK A01 T02411125  RH  008%=      5-min Rain = 0
KPVS 110000Z 32002KT 24/M13 A2977 RMK A01 T02391125  RH  008%=      5-min Rain = 0
KPVS 110005Z 33002KT 24/M13 A2977 RMK A01 T02381126  RH  008%=      5-min Rain = 0
KPVS 110010Z 33002KT 24/M13 A2977 RMK A01 T02371126  RH  008%=      5-min Rain = 0
KPVS 110015Z 35001KT 24/M13 A2977 RMK A01 T02371128  RH  008%=      5-min Rain = 0
KPVS 110020Z 35001KT 24/M13 A2977 RMK A01 T02371127  RH  008%=      5-min Rain = 0
KPVS 110025Z 36000KT 23/M12 A2977 RMK A01 T02331119  RH  009%=      5-min Rain = 0
KPVS 110030Z 00000KT 23/M12 A2977 RMK A01 T02281121  RH  009%=      5-min Rain = 0
KPVS 110035Z 05001KT 23/M12 A2977 RMK A01 T02261118  RH  009%=      5-min Rain = 0
KPVS 110040Z 03005KT 22/M12 A2978 RMK A01 T02231119  RH  009%=      5-min Rain = 0
KPVS 110045Z 02006KT 22/M12 A2978 RMK A01 T02241121  RH  009%=      5-min Rain = 0
KPVS 110050Z 04005KT 22/M12 A2978 RMK A01 T02231123  RH  009%=      5-min Rain = 0
KPVS 110055Z 03004KT 22/M12 A2978 RMK A01 T02181122  RH  009%=      5-min Rain = 0
KPVS 110100Z 02007KT 21/M12 A2978 RMK A01 T02141122  RH  010%=      5-min Rain = 0
KPVS 110105Z 03008KT 21/M12 A2979 RMK A01 T02141123  RH  010%=      5-min Rain = 0
KPVS 110110Z 03006KT 21/M12 A2979 RMK A01 T02101121  RH  010%=      5-min Rain = 0
KPVS 110115Z 03006KT 21/M12 A2979 RMK A01 T02061121  RH  010%=      5-min Rain = 0
KPVS 110120Z 05005KT 20/M12 A298 RMK A01 T02021120  RH  010%=      5-min Rain = 0
KPVS 110125Z 04004KT 20/M12 A298 RMK A01 T01981120  RH  011%=      5-min Rain = 0
KPVS 110130Z 04004KT 20/M12 A298 RMK A01 T01961120  RH  011%=      5-min Rain = 0
KPVS 110135Z 03004KT 19/M12 A298 RMK A01 T01921120  RH  011%=      5-min Rain = 0
KPVS 110140Z 03005KT 19/M12 A2981 RMK A01 T01901120  RH  011%=      5-min Rain = 0
KPVS 110145Z 04006KT 19/M12 A2981 RMK A01 T01881119  RH  011%=      5-min Rain = 0
KPVS 110150Z 05008KT 19/M12 A2981 RMK A01 T01881121  RH  011%=      5-min Rain = 0
KPVS 110155Z 04010KT 19/M12 A2981 RMK A01 T01921121  RH  011%=      5-min Rain = 0
KPVS 110200Z 04009KT 19/M12 A2982 RMK A01 T01891121  RH  011%=      5-min Rain = 0
KPVS 110205Z 04009G14KT 18/M12 A2983 RMK A01 T01821119  RH  012%=      5-min Rain = 0
KPVS 110210Z 04011KT 18/M12 A2983 RMK A01 T01761119  RH  012%=      5-min Rain = 0
KPVS 110215Z 04010KT 17/M12 A2983 RMK A01 T01711115  RH  013%=      5-min Rain = 0
KPVS 110220Z 04008KT 17/M11 A2983 RMK A01 T01691112  RH  014%=      5-min Rain = 0
KPVS 110225Z 04008KT 17/M11 A2984 RMK A01 T01671111  RH  014%=      5-min Rain = 0
KPVS 110230Z 04007KT 16/M11 A2984 RMK A01 T01631108  RH  015%=      5-min Rain = 0
KPVS 110235Z 04008KT 16/M11 A2984 RMK A01 T01601107  RH  015%=      5-min Rain = 0
KPVS 110240Z 04009KT 16/M11 A2984 RMK A01 T01601107  RH  015%=      5-min Rain = 0
KPVS 110245Z 04009KT 16/M11 A2985 RMK A01 T01591107  RH  015%=      5-min Rain = 0
KPVS 110250Z 04008KT 16/M11 A2985 RMK A01 T01601106  RH  015%=      5-min Rain = 0
KPVS 110255Z 04008KT 16/M11 A2985 RMK A01 T01621106  RH  015%=      5-min Rain = 0
KPVS 110300Z 04010KT 16/M11 A2985 RMK A01 T01611106  RH  015%=      5-min Rain = 0
KPVS 110305Z 04010KT 16/M11 A2986 RMK A01 T01581105  RH  016%=      5-min Rain = 0
KPVS 110310Z 04011KT 16/M11 A2986 RMK A01 T01571105  RH  016%=      5-min Rain = 0
KPVS 110315Z 04009KT 16/M10 A2986 RMK A01 T01551104  RH  016%=      5-min Rain = 0
KPVS 110320Z 04009KT 15/M10 A2987 RMK A01 T01511103  RH  017%=      5-min Rain = 0
KPVS 110325Z 03008KT 15/M10 A2987 RMK A01 T01491101  RH  017%=      5-min Rain = 0
KPVS 110330Z 04008KT 15/M10 A2987 RMK A01 T01471100  RH  017%=      5-min Rain = 0
KPVS 110335Z 04007KT 15/M10 A2987 RMK A01 T01451099  RH  018%=      5-min Rain = 0
KPVS 110340Z 03008KT 14/M10 A2988 RMK A01 T01431099  RH  018%=      5-min Rain = 0
KPVS 110345Z 04007KT 14/M10 A2988 RMK A01 T01421097  RH  018%=      5-min Rain = 0
KPVS 110350Z 04008KT 14/M10 A2988 RMK A01 T01411096  RH  019%=      5-min Rain = 0
KPVS 110355Z 03007KT 14/M10 A2989 RMK A01 T01411095  RH  019%=      5-min Rain = 0
KPVS 110400Z 01008KT 14/M09 A2989 RMK A01 T01411094  RH  019%=      5-min Rain = 0
KPVS 110405Z 01007KT 14/M09 A299 RMK A01 T01411094  RH  019%=      5-min Rain = 0
KPVS 110410Z 02009G14KT 14/M10 A299 RMK A01 T01441095  RH  018%=      5-min Rain = 0
KPVS 110415Z 02009G15KT 15/M10 A2991 RMK A01 T01451095  RH  018%=      5-min Rain = 0
KPVS 110420Z 35008KT 15/M09 A2991 RMK A01 T01451094  RH  018%=      5-min Rain = 0
KPVS 110425Z 34008KT 14/M09 A2992 RMK A01 T01411094  RH  019%=      5-min Rain = 0
KPVS 110430Z 01009KT 14/M09 A2992 RMK A01 T01391093  RH  019%=      5-min Rain = 0
KPVS 110435Z 01010KT 14/M09 A2992 RMK A01 T01401092  RH  019%=      5-min Rain = 0
KPVS 110440Z 02012KT 15/M09 A2993 RMK A01 T01451090  RH  019%=      5-min Rain = 0
KPVS 110445Z 02013G18KT 15/M09 A2993 RMK A01 T01501088  RH  019%=      5-min Rain = 0
KPVS 110450Z 01012G17KT 15/M08 A2993 RMK A01 T01501080  RH  020%=      5-min Rain = 0
KPVS 110455Z 34011G19KT 15/M08 A2994 RMK A01 T01461077  RH  021%=      5-min Rain = 0
KPVS 110500Z 34013G19KT 15/M08 A2994 RMK A01 T01501077  RH  020%=      5-min Rain = 0
KPVS 110505Z 35010KT 15/M07 A2994 RMK A01 T01491072  RH  021%=      5-min Rain = 0
KPVS 110510Z 36009KT 14/M08 A2994 RMK A01 T01431078  RH  021%=      5-min Rain = 0
KPVS 110515Z 01013G21KT 14/M07 A2994 RMK A01 T01411074  RH  022%=      5-min Rain = 0
KPVS 110520Z 01014G21KT 14/M07 A2995 RMK A01 T01421074  RH  022%=      5-min Rain = 0
KPVS 110525Z 02016G21KT 14/M06 A2995 RMK A01 T01441061  RH  024%=      5-min Rain = 0
KPVS 110530Z 02016G26KT 15/M05 A2995 RMK A01 T01471054  RH  025%=      5-min Rain = 0
KPVS 110535Z 01019G26KT 14/M06 A2996 RMK A01 T01431056  RH  025%=      5-min Rain = 0
KPVS 110540Z 02021G29KT 14/M06 A2996 RMK A01 T01381057  RH  026%=      5-min Rain = 0
KPVS 110545Z 01018G24KT 13/M06 A2996 RMK A01 T01331056  RH  027%=      5-min Rain = 0
KPVS 110550Z 01019G29KT 13/M06 A2997 RMK A01 T01311055  RH  027%=      5-min Rain = 0
KPVS 110555Z 02019G27KT 13/M05 A2998 RMK A01 T01291053  RH  028%=      5-min Rain = 0

Page generated in 0.0361 seconds.